createdAt,value
2019-02-09T00:01:34.063Z,50.28
2019-02-09T00:02:41.793Z,47.93
2019-02-09T00:03:49.311Z,50.73
2019-02-09T00:04:56.453Z,52.83
2019-02-09T00:06:02.894Z,50.78
2019-02-09T00:07:08.964Z,55.73
2019-02-09T00:08:15.916Z,51.70
2019-02-09T00:09:22.938Z,50.78
2019-02-09T00:10:29.684Z,49.23
2019-02-09T00:11:38.922Z,55.35
2019-02-09T00:12:48.090Z,56.95
2019-02-09T00:13:54.710Z,55.15
2019-02-09T00:15:01.976Z,56.75
2019-02-09T00:16:08.683Z,58.68
2019-02-09T00:17:15.483Z,56.88
2019-02-09T00:18:22.570Z,53.30
2019-02-09T00:19:29.792Z,52.83
2019-02-09T00:20:37.141Z,51.42
2019-02-09T00:21:45.062Z,54.88
2019-02-09T00:22:52.484Z,49.18
2019-02-09T00:23:59.309Z,55.58
2019-02-09T00:25:16.726Z,49.58
2019-02-09T00:26:22.732Z,54.42
2019-02-09T00:27:29.708Z,54.18
2019-02-09T00:28:37.112Z,48.42
2019-02-09T00:29:49.286Z,49.88
2019-02-09T00:30:55.315Z,53.92
2019-02-09T00:32:02.762Z,51.95
2019-02-09T00:33:09.218Z,50.45
2019-02-09T00:34:16.281Z,56.58
2019-02-09T00:35:23.359Z,50.65
2019-02-09T00:36:30.633Z,49.27
2019-02-09T00:37:36.999Z,48.85
2019-02-09T00:38:43.544Z,48.58
2019-02-09T00:39:50.725Z,55.15
2019-02-09T00:40:57.978Z,52.62
2019-02-09T00:42:05.300Z,56.68
2019-02-09T00:43:12.233Z,48.60
2019-02-09T00:44:18.468Z,48.63
2019-02-09T00:45:26.639Z,47.62
2019-02-09T00:46:32.715Z,50.28
2019-02-09T00:47:39.423Z,50.23
2019-02-09T00:48:46.268Z,49.42
2019-02-09T00:49:53.979Z,50.92
2019-02-09T00:51:01.668Z,51.40
2019-02-09T00:52:08.701Z,45.63
2019-02-09T00:53:15.375Z,50.67
2019-02-09T00:54:22.085Z,45.25
2019-02-09T00:55:30.177Z,51.68
2019-02-09T00:56:36.508Z,53.92
2019-02-09T00:57:42.745Z,52.20
2019-02-09T00:58:49.192Z,49.42
2019-02-09T00:59:55.878Z,52.78
2019-02-09T01:01:03.326Z,48.28
2019-02-09T01:02:10.067Z,54.23
2019-02-09T01:03:16.954Z,55.95
2019-02-09T01:04:23.512Z,54.20
2019-02-09T01:05:40.338Z,54.85
2019-02-09T01:06:46.708Z,51.75
2019-02-09T01:07:53.760Z,49.05
2019-02-09T01:09:00.250Z,47.43
2019-02-09T01:10:11.719Z,51.42
2019-02-09T01:11:18.199Z,47.40
2019-02-09T01:12:24.913Z,52.27
2019-02-09T01:13:31.462Z,47.25
2019-02-09T01:14:39.081Z,48.95
2019-02-09T01:15:47.161Z,45.15
2019-02-09T01:16:53.603Z,45.92
2019-02-09T01:18:00.095Z,45.55
2019-02-09T01:19:07.086Z,48.20
2019-02-09T01:20:23.295Z,44.83
2019-02-09T01:21:30.769Z,46.65
2019-02-09T01:22:38.927Z,48.30
2019-02-09T01:23:45.295Z,44.75
2019-02-09T01:24:52.983Z,48.15
2019-02-09T01:25:59.779Z,49.42
2019-02-09T01:27:06.413Z,47.75
2019-02-09T01:28:12.592Z,47.35
2019-02-09T01:29:18.732Z,53.35
2019-02-09T01:30:30.317Z,45.28
2019-02-09T01:31:37.878Z,44.53
2019-02-09T01:32:44.056Z,54.27
2019-02-09T01:33:50.195Z,44.63
2019-02-09T01:34:56.764Z,43.65
2019-02-09T01:36:03.730Z,39.03
2019-02-09T01:37:10.338Z,42.88
2019-02-09T01:38:25.365Z,51.23
2019-02-09T01:39:33.837Z,43.83
2019-02-09T01:40:40.448Z,40.78
2019-02-09T01:41:46.947Z,39.20
2019-02-09T01:42:53.621Z,43.05
2019-02-09T01:44:00.583Z,45.90
2019-02-09T01:45:12.287Z,49.73
2019-02-09T01:46:18.920Z,42.55
2019-02-09T01:47:26.048Z,40.12
2019-02-09T01:48:33.287Z,47.20
2019-02-09T01:49:39.877Z,41.40
2019-02-09T01:50:46.797Z,44.77
2019-02-09T01:51:53.101Z,44.95
2019-02-09T01:53:01.668Z,44.18
2019-02-09T01:54:07.462Z,38.55
2019-02-09T01:55:14.023Z,40.17
2019-02-09T01:56:20.683Z,37.23
2019-02-09T01:57:26.549Z,38.17
2019-02-09T01:58:33.572Z,43.35
2019-02-09T01:59:41.831Z,37.93
2019-02-09T02:00:47.964Z,44.70
2019-02-09T02:01:55.143Z,39.00
2019-02-09T02:03:01.390Z,37.40
2019-02-09T02:04:08.056Z,44.33
2019-02-09T02:05:16.956Z,40.38
2019-02-09T02:06:26.589Z,37.78
2019-02-09T02:07:37.623Z,40.83
2019-02-09T02:08:55.571Z,41.10
2019-02-09T02:10:23.883Z,39.03
2019-02-09T02:11:30.402Z,38.45
2019-02-09T02:12:36.395Z,40.70
2019-02-09T02:13:42.879Z,39.88
2019-02-09T02:14:49.876Z,34.55
2019-02-09T02:15:56.742Z,42.00
2019-02-09T02:17:02.756Z,34.40
2019-02-09T02:18:09.981Z,40.28
2019-02-09T02:19:16.519Z,41.77
2019-02-09T02:20:34.092Z,38.85
2019-02-09T02:21:41.159Z,37.20
2019-02-09T02:22:49.133Z,38.15
2019-02-09T02:23:55.712Z,36.98
2019-02-09T02:25:03.070Z,39.33
2019-02-09T02:26:11.171Z,36.55
2019-02-09T02:27:18.548Z,35.15
2019-02-09T02:28:25.188Z,35.48
2019-02-09T02:29:32.070Z,35.75
2019-02-09T02:30:40.036Z,44.25
2019-02-09T02:31:47.449Z,39.65
2019-02-09T02:32:53.890Z,38.08
2019-02-09T02:33:59.682Z,39.05
2019-02-09T02:35:09.332Z,41.02
2019-02-09T02:36:15.673Z,41.40
2019-02-09T02:37:21.984Z,42.60
2019-02-09T02:38:28.502Z,46.15
2019-02-09T02:39:35.688Z,44.13
2019-02-09T02:40:42.253Z,44.20
2019-02-09T02:41:49.016Z,40.95
2019-02-09T02:42:55.516Z,43.65
2019-02-09T02:44:02.342Z,40.80
2019-02-09T02:45:16.071Z,42.75
2019-02-09T02:46:24.213Z,40.80
2019-02-09T02:47:30.959Z,42.78
2019-02-09T02:48:37.291Z,40.08
2019-02-09T02:49:44.014Z,40.35
2019-02-09T02:50:50.903Z,38.60
2019-02-09T02:51:58.498Z,38.90
2019-02-09T02:53:05.149Z,39.88
2019-02-09T02:54:11.603Z,39.20
2019-02-09T02:55:27.284Z,41.92
2019-02-09T02:56:33.924Z,44.08
2019-02-09T02:57:41.052Z,44.35
2019-02-09T02:58:47.783Z,43.85
2019-02-09T02:59:54.228Z,45.17
2019-02-09T03:01:00.754Z,45.40
2019-02-09T03:02:08.072Z,46.98
2019-02-09T03:03:14.555Z,43.78
2019-02-09T03:04:21.834Z,41.77
2019-02-09T03:05:28.576Z,43.17
2019-02-09T03:06:34.858Z,41.40
2019-02-09T03:07:41.650Z,41.40
2019-02-09T03:08:49.440Z,41.60
2019-02-09T03:09:55.808Z,39.20
2019-02-09T03:11:02.029Z,37.90
2019-02-09T03:12:08.595Z,42.00
2019-02-09T03:13:15.721Z,46.10
2019-02-09T03:14:22.008Z,39.53
2019-02-09T03:15:37.035Z,41.73
2019-02-09T03:16:43.946Z,40.78
2019-02-09T03:17:49.919Z,37.85
2019-02-09T03:18:56.159Z,39.53
2019-02-09T03:20:03.517Z,40.95
2019-02-09T03:21:10.355Z,42.30
2019-02-09T03:22:16.386Z,42.20
2019-02-09T03:23:23.085Z,41.73
2019-02-09T03:24:30.444Z,44.40
2019-02-09T03:25:49.845Z,45.85
2019-02-09T03:27:11.293Z,42.67
2019-02-09T03:28:23.392Z,44.77
2019-02-09T03:29:49.705Z,44.67
2019-02-09T03:31:06.300Z,43.75
2019-02-09T03:32:20.130Z,44.70
2019-02-09T03:33:27.874Z,46.50
2019-02-09T03:34:34.242Z,44.93
2019-02-09T03:35:40.427Z,44.70
2019-02-09T03:36:46.707Z,38.53
2019-02-09T03:37:53.662Z,39.90
2019-02-09T03:39:00.468Z,43.50
2019-02-09T03:40:15.549Z,39.53
2019-02-09T03:41:22.351Z,39.73
2019-02-09T03:42:29.631Z,39.20
2019-02-09T03:43:37.915Z,40.85
2019-02-09T03:44:44.803Z,36.80
2019-02-09T03:45:58.908Z,43.35
2019-02-09T03:47:20.215Z,43.65
2019-02-09T03:48:28.617Z,43.45
2019-02-09T03:49:34.730Z,44.85
2019-02-09T03:50:43.061Z,39.33
2019-02-09T03:51:50.016Z,49.98
2019-02-09T03:52:57.151Z,48.25
2019-02-09T03:54:05.116Z,40.63
2019-02-09T03:55:11.952Z,41.28
2019-02-09T03:56:32.974Z,42.25
2019-02-09T03:57:51.467Z,44.73
2019-02-09T03:59:15.366Z,39.25
2019-02-09T04:00:54.760Z,39.30
2019-02-09T04:02:03.046Z,44.10
2019-02-09T04:03:09.529Z,41.15
2019-02-09T04:04:16.033Z,38.13
2019-02-09T04:05:22.625Z,43.15
2019-02-09T04:06:29.559Z,41.53
2019-02-09T04:07:37.511Z,43.17
2019-02-09T04:08:45.654Z,41.95
2019-02-09T04:09:57.191Z,43.52
2019-02-09T04:11:25.012Z,44.80
2019-02-09T04:12:32.051Z,48.33
2019-02-09T04:13:38.814Z,46.55
2019-02-09T04:14:53.200Z,45.90
2019-02-09T04:15:59.213Z,46.80
2019-02-09T04:17:06.979Z,46.37
2019-02-09T04:18:19.626Z,42.83
2019-02-09T04:19:33.146Z,47.78
2019-02-09T04:20:39.598Z,42.80
2019-02-09T04:21:47.052Z,47.23
2019-02-09T04:22:54.153Z,45.63
2019-02-09T04:24:04.124Z,46.23
2019-02-09T04:25:14.627Z,48.05
2019-02-09T04:26:24.999Z,43.08
2019-02-09T04:27:34.132Z,43.38
2019-02-09T04:28:40.699Z,39.75
2019-02-09T04:29:47.538Z,44.27
2019-02-09T04:30:53.931Z,45.28
2019-02-09T04:32:01.047Z,46.83
2019-02-09T04:33:16.460Z,44.85
2019-02-09T04:34:28.729Z,45.05
2019-02-09T04:35:35.730Z,45.28
2019-02-09T04:36:42.926Z,46.55
2019-02-09T04:37:49.172Z,45.80
2019-02-09T04:38:55.527Z,44.35
2019-02-09T04:40:02.010Z,48.80
2019-02-09T04:41:09.069Z,54.75
2019-02-09T04:42:15.240Z,48.15
2019-02-09T04:43:21.851Z,45.98
2019-02-09T04:44:27.977Z,52.93
2019-02-09T04:45:34.900Z,48.15
2019-02-09T04:46:41.290Z,50.05
2019-02-09T04:47:48.037Z,48.68
2019-02-09T04:48:58.014Z,46.35
2019-02-09T04:50:05.684Z,39.90
2019-02-09T04:51:12.782Z,44.93
2019-02-09T04:52:19.176Z,45.67
2019-02-09T04:53:26.010Z,46.20
2019-02-09T04:54:32.202Z,43.92
2019-02-09T04:55:40.857Z,43.68
2019-02-09T04:56:47.265Z,43.52
2019-02-09T04:57:57.426Z,50.35
2019-02-09T04:59:04.258Z,45.85
2019-02-09T05:00:23.845Z,50.15
2019-02-09T05:01:30.717Z,44.73
2019-02-09T05:02:37.493Z,50.90
2019-02-09T05:03:45.863Z,48.80
2019-02-09T05:04:52.694Z,49.18
2019-02-09T05:05:59.007Z,48.55
2019-02-09T05:07:05.564Z,50.08
2019-02-09T05:08:13.019Z,48.23
2019-02-09T05:09:20.042Z,49.48
2019-02-09T05:10:27.473Z,49.63
2019-02-09T05:11:34.151Z,48.08
2019-02-09T05:12:41.188Z,44.55
2019-02-09T05:13:47.354Z,45.58
2019-02-09T05:14:55.974Z,52.80
2019-02-09T05:16:03.267Z,47.90
2019-02-09T05:17:09.906Z,44.08
2019-02-09T05:18:16.424Z,49.70
2019-02-09T05:19:22.512Z,47.65
2019-02-09T05:20:29.236Z,44.20
2019-02-09T05:21:36.175Z,50.65
2019-02-09T05:22:44.393Z,45.90
2019-02-09T05:23:50.501Z,50.90
2019-02-09T05:24:57.534Z,51.83
2019-02-09T05:26:07.038Z,53.68
2019-02-09T05:27:13.688Z,47.90
2019-02-09T05:28:19.856Z,51.77
2019-02-09T05:29:26.505Z,47.93
2019-02-09T05:30:35.215Z,58.42
2019-02-09T05:31:43.593Z,48.28
2019-02-09T05:32:49.388Z,45.05
2019-02-09T05:33:56.274Z,48.60
2019-02-09T05:35:03.155Z,48.08
2019-02-09T05:36:10.531Z,48.45
2019-02-09T05:37:25.253Z,50.25
2019-02-09T05:38:30.138Z,48.52
2019-02-09T05:39:36.336Z,52.03
2019-02-09T05:40:43.165Z,51.53
2019-02-09T05:41:49.693Z,49.58
2019-02-09T05:42:56.395Z,49.33
2019-02-09T05:44:02.954Z,50.73
2019-02-09T05:45:18.056Z,49.03
2019-02-09T05:46:24.140Z,52.80
2019-02-09T05:47:30.982Z,52.20
2019-02-09T05:48:37.117Z,52.27
2019-02-09T05:49:45.813Z,53.45
2019-02-09T05:50:51.632Z,54.98
2019-02-09T05:51:58.978Z,52.40
2019-02-09T05:53:05.432Z,51.45
2019-02-09T05:54:12.711Z,53.65
2019-02-09T05:55:21.106Z,52.88
2019-02-09T05:56:27.145Z,51.65
2019-02-09T05:57:33.218Z,52.50
2019-02-09T05:58:40.265Z,50.67
2019-02-09T05:59:46.777Z,52.67
2019-02-09T06:00:54.110Z,49.98
2019-02-09T06:02:00.993Z,50.25
2019-02-09T06:03:07.543Z,52.60
2019-02-09T06:04:14.771Z,44.93
2019-02-09T06:05:21.583Z,49.05
2019-02-09T06:06:28.102Z,47.40
2019-02-09T06:07:35.418Z,48.40
2019-02-09T06:08:42.198Z,48.17
2019-02-09T06:09:48.976Z,52.20
2019-02-09T06:10:55.709Z,48.42
2019-02-09T06:12:02.685Z,45.92
2019-02-09T06:13:09.402Z,50.95
2019-02-09T06:14:15.907Z,51.98
2019-02-09T06:15:27.139Z,50.30
2019-02-09T06:16:34.030Z,50.55
2019-02-09T06:17:41.483Z,48.15
2019-02-09T06:18:48.685Z,48.78
2019-02-09T06:19:55.932Z,53.92
2019-02-09T06:21:02.054Z,51.08
2019-02-09T06:22:08.284Z,47.95
2019-02-09T06:23:15.643Z,53.33
2019-02-09T06:24:22.037Z,47.20
2019-02-09T06:25:29.899Z,50.15
2019-02-09T06:26:36.598Z,46.60
2019-02-09T06:27:43.484Z,46.68
2019-02-09T06:28:50.446Z,48.48
2019-02-09T06:29:56.806Z,53.10
2019-02-09T06:31:03.505Z,45.67
2019-02-09T06:32:10.146Z,49.55
2019-02-09T06:33:16.149Z,47.85
2019-02-09T06:34:23.108Z,45.67
2019-02-09T06:35:30.219Z,52.73
2019-02-09T06:36:36.540Z,45.90
2019-02-09T06:37:44.411Z,49.08
2019-02-09T06:38:50.802Z,51.83
2019-02-09T06:39:58.040Z,47.30
2019-02-09T06:41:04.656Z,46.13
2019-02-09T06:42:11.085Z,46.55
2019-02-09T06:43:18.185Z,48.78
2019-02-09T06:44:25.210Z,48.78
2019-02-09T06:45:31.681Z,50.17
2019-02-09T06:46:38.851Z,46.83
2019-02-09T06:47:44.912Z,43.55
2019-02-09T06:48:51.048Z,43.50
2019-02-09T06:49:58.760Z,46.08
2019-02-09T06:51:05.691Z,41.65
2019-02-09T06:52:12.015Z,48.23
2019-02-09T06:53:18.106Z,47.17
2019-02-09T06:54:26.512Z,49.23
2019-02-09T06:55:39.411Z,52.45
2019-02-09T06:56:46.146Z,48.35
2019-02-09T06:57:52.740Z,46.73
2019-02-09T06:58:59.306Z,48.48
2019-02-09T07:00:11.493Z,50.75
2019-02-09T07:01:17.547Z,45.75
2019-02-09T07:02:24.315Z,50.48
2019-02-09T07:03:57.593Z,56.05
2019-02-09T07:09:55.803Z,45.83
2019-02-09T07:11:02.232Z,45.80
2019-02-09T07:12:08.753Z,48.83
2019-02-09T07:13:16.273Z,48.65
2019-02-09T07:14:23.413Z,47.20
2019-02-09T07:15:38.059Z,51.73
2019-02-09T07:16:44.045Z,49.27
2019-02-09T07:17:51.020Z,48.28
2019-02-09T07:18:57.549Z,49.03
2019-02-09T07:20:06.176Z,51.65
2019-02-09T07:21:12.379Z,49.20
2019-02-09T07:22:19.030Z,52.80
2019-02-09T07:23:26.241Z,52.78
2019-02-09T07:24:33.074Z,51.45
2019-02-09T07:25:40.034Z,50.35
2019-02-09T07:26:46.719Z,48.05
2019-02-09T07:27:54.426Z,50.00
2019-02-09T07:29:01.027Z,47.33
2019-02-09T07:30:12.429Z,46.20
2019-02-09T07:31:19.013Z,49.10
2019-02-09T07:32:26.339Z,47.05
2019-02-09T07:33:32.985Z,44.25
2019-02-09T07:34:40.182Z,46.50
2019-02-09T07:35:46.923Z,44.65
2019-02-09T07:36:53.588Z,45.98
2019-02-09T07:37:59.887Z,44.58
2019-02-09T07:39:08.976Z,46.13
2019-02-09T07:40:23.839Z,42.85
2019-02-09T07:41:30.029Z,49.00
2019-02-09T07:42:36.956Z,46.60
2019-02-09T07:43:43.617Z,45.38
2019-02-09T07:44:50.499Z,49.30
2019-02-09T07:45:57.157Z,42.50
2019-02-09T07:47:03.736Z,48.35
2019-02-09T07:48:10.347Z,47.70
2019-02-09T07:49:17.604Z,53.15
2019-02-09T07:50:28.707Z,47.10
2019-02-09T07:51:34.564Z,51.13
2019-02-09T07:52:40.458Z,51.45
2019-02-09T07:53:47.436Z,51.55
2019-02-09T07:54:53.630Z,44.88
2019-02-09T07:56:00.423Z,47.00
2019-02-09T07:57:07.023Z,46.42
2019-02-09T07:58:13.926Z,44.20
2019-02-09T07:59:20.430Z,41.75
2019-02-09T08:00:33.311Z,44.20
2019-02-09T08:01:39.894Z,46.70
2019-02-09T08:02:47.421Z,46.28
2019-02-09T08:03:53.912Z,48.28
2019-02-09T08:05:02.705Z,44.58
2019-02-09T08:06:09.042Z,49.03
2019-02-09T08:07:16.633Z,46.55
2019-02-09T08:08:23.854Z,51.00
2019-02-09T08:09:31.874Z,45.30
2019-02-09T08:10:40.088Z,46.00
2019-02-09T08:11:46.279Z,45.03
2019-02-09T08:12:52.729Z,44.53
2019-02-09T08:13:59.946Z,47.90
2019-02-09T08:15:10.943Z,45.20
2019-02-09T08:16:18.311Z,45.88
2019-02-09T08:17:25.662Z,42.23
2019-02-09T08:18:32.043Z,44.30
2019-02-09T08:19:38.996Z,44.95
2019-02-09T08:20:45.583Z,40.48
2019-02-09T08:21:54.845Z,42.55
2019-02-09T08:23:22.100Z,41.15
2019-02-09T08:24:28.860Z,44.75
2019-02-09T08:25:39.109Z,43.08
2019-02-09T08:26:45.929Z,43.60
2019-02-09T08:28:17.397Z,44.20
2019-02-09T08:29:29.861Z,45.28
2019-02-09T08:30:42.860Z,48.45
2019-02-09T08:31:50.088Z,44.98
2019-02-09T08:32:57.608Z,45.55
2019-02-09T08:34:05.182Z,40.38
2019-02-09T08:35:12.302Z,42.25
2019-02-09T08:36:19.320Z,41.02
2019-02-09T08:37:27.815Z,41.92
2019-02-09T08:38:34.769Z,45.90
2019-02-09T08:39:42.089Z,42.03
2019-02-09T08:40:49.690Z,38.73
2019-02-09T08:41:56.770Z,42.03
2019-02-09T08:43:03.362Z,44.50
2019-02-09T08:44:10.109Z,42.95
2019-02-09T08:45:21.394Z,39.18
2019-02-09T08:46:28.000Z,42.33
2019-02-09T08:47:34.860Z,37.50
2019-02-09T08:48:41.203Z,40.88
2019-02-09T08:49:47.849Z,39.18
2019-02-09T08:51:01.966Z,38.78
2019-02-09T08:52:09.767Z,38.67
2019-02-09T08:53:16.964Z,35.33
2019-02-09T08:54:23.115Z,37.45
2019-02-09T08:55:29.593Z,33.80
2019-02-09T08:56:36.635Z,32.88
2019-02-09T08:57:43.819Z,36.10
2019-02-09T08:58:50.621Z,33.13
2019-02-09T08:59:58.359Z,33.92
2019-02-09T09:01:05.259Z,32.50
2019-02-09T09:02:20.210Z,37.70
2019-02-09T09:03:21.118Z,30.90
2019-02-09T09:04:29.269Z,32.65
2019-02-09T09:05:35.621Z,33.15
2019-02-09T09:06:42.878Z,33.92
2019-02-09T09:07:50.423Z,31.77
2019-02-09T09:08:57.867Z,32.88
2019-02-09T09:10:07.160Z,36.85
2019-02-09T09:11:13.290Z,34.92
2019-02-09T09:12:19.504Z,30.52
2019-02-09T09:13:25.896Z,36.15
2019-02-09T09:14:31.863Z,36.23
2019-02-09T09:15:51.443Z,34.38
2019-02-09T09:16:57.387Z,31.80
2019-02-09T09:18:03.317Z,37.60
2019-02-09T09:19:09.477Z,32.70
2019-02-09T09:20:27.195Z,33.83
2019-02-09T09:21:33.216Z,32.38
2019-02-09T09:22:41.286Z,36.08
2019-02-09T09:23:47.304Z,31.68
2019-02-09T09:24:53.403Z,31.33
2019-02-09T09:26:00.223Z,35.73
2019-02-09T09:27:07.217Z,33.45
2019-02-09T09:28:15.582Z,28.90
2019-02-09T09:29:21.742Z,32.93
2019-02-09T09:30:51.924Z,35.45
2019-02-09T09:31:58.570Z,33.25
2019-02-09T09:33:07.023Z,34.67
2019-02-09T09:34:13.715Z,35.43
2019-02-09T09:35:20.896Z,36.68
2019-02-09T09:36:27.763Z,34.60
2019-02-09T09:37:34.983Z,34.48
2019-02-09T09:39:58.576Z,36.10
2019-02-09T09:41:05.911Z,40.60
2019-02-09T09:42:12.843Z,34.70
2019-02-09T09:43:20.163Z,33.90
2019-02-09T09:44:26.842Z,35.55
2019-02-09T09:45:38.024Z,37.40
2019-02-09T09:46:43.823Z,41.83
2019-02-09T09:47:49.963Z,34.13
2019-02-09T09:48:56.184Z,35.03
2019-02-09T09:50:02.436Z,34.88
2019-02-09T09:51:08.176Z,33.55
2019-02-09T09:52:14.356Z,38.53
2019-02-09T09:53:21.278Z,36.68
2019-02-09T09:54:27.542Z,39.58
2019-02-09T09:55:33.723Z,34.92
2019-02-09T09:56:40.102Z,36.45
2019-02-09T09:57:46.116Z,41.58
2019-02-09T09:58:52.849Z,35.33
2019-02-09T09:59:59.584Z,35.25
2019-02-09T10:01:06.203Z,36.38
2019-02-09T10:02:13.238Z,37.13
2019-02-09T10:03:20.556Z,36.80
2019-02-09T10:04:27.755Z,36.38
2019-02-09T10:05:34.624Z,36.03
2019-02-09T10:06:41.431Z,34.95
2019-02-09T10:07:48.521Z,36.77
2019-02-09T10:08:55.907Z,39.65
2019-02-09T10:10:02.396Z,39.40
2019-02-09T10:11:08.962Z,36.42
2019-02-09T10:12:16.143Z,35.10
2019-02-09T10:13:22.802Z,33.35
2019-02-09T10:14:29.943Z,33.67
2019-02-09T10:15:36.742Z,36.42
2019-02-09T10:16:42.623Z,33.53
2019-02-09T10:17:48.695Z,35.28
2019-02-09T10:18:54.956Z,36.68
2019-02-09T10:20:01.302Z,38.60
2019-02-09T10:21:07.435Z,38.00
2019-02-09T10:22:15.476Z,41.70
2019-02-09T10:23:21.655Z,38.23
2019-02-09T10:24:27.803Z,36.42
2019-02-09T10:25:33.846Z,41.00
2019-02-09T10:26:41.297Z,39.30
2019-02-09T10:27:47.723Z,37.85
2019-02-09T10:30:23.083Z,40.15
2019-02-09T10:31:30.303Z,37.30
2019-02-09T10:32:44.156Z,39.98
2019-02-09T10:33:45.599Z,36.25
2019-02-09T10:34:52.543Z,38.00
2019-02-09T10:35:59.403Z,38.17
2019-02-09T10:37:06.442Z,37.05
2019-02-09T10:38:14.125Z,36.42
2019-02-09T10:39:21.022Z,43.30
2019-02-09T10:40:34.657Z,38.53
2019-02-09T10:41:41.344Z,42.03
2019-02-09T10:42:47.846Z,46.90
2019-02-09T10:43:54.704Z,43.30
2019-02-09T10:45:03.222Z,41.37
2019-02-09T10:46:11.503Z,39.63
2019-02-09T10:47:17.611Z,40.40
2019-02-09T10:48:23.325Z,38.78
2019-02-09T10:49:29.776Z,35.33
2019-02-09T10:50:39.507Z,40.75
2019-02-09T10:51:45.896Z,39.50
2019-02-09T10:52:51.723Z,40.98
2019-02-09T10:53:57.683Z,39.78
2019-02-09T10:55:03.403Z,48.05
2019-02-09T10:56:09.422Z,40.63
2019-02-09T10:57:15.334Z,38.85
2019-02-09T10:58:22.390Z,46.48
2019-02-09T10:59:28.585Z,44.23
2019-02-09T11:00:45.288Z,40.65
2019-02-09T11:01:51.815Z,45.03
2019-02-09T11:02:58.345Z,45.10
2019-02-09T11:04:05.223Z,44.75
2019-02-09T11:05:14.976Z,38.00
2019-02-09T11:06:21.883Z,35.33
2019-02-09T11:07:28.536Z,38.17
2019-02-09T11:08:35.273Z,47.13
2019-02-09T11:09:53.747Z,40.90
2019-02-09T11:11:00.166Z,33.83
2019-02-09T11:12:07.304Z,36.45
2019-02-09T11:13:13.144Z,45.92
2019-02-09T11:14:20.135Z,37.93
2019-02-09T11:15:29.198Z,36.80
2019-02-09T11:16:36.148Z,37.05
2019-02-09T11:17:42.056Z,40.58
2019-02-09T11:18:47.897Z,45.20
2019-02-09T11:19:53.943Z,46.20
2019-02-09T11:20:59.982Z,48.78
2019-02-09T11:22:05.944Z,36.45
2019-02-09T11:23:11.676Z,32.13
2019-02-09T11:24:18.018Z,35.05
2019-02-09T11:25:24.982Z,33.13
2019-02-09T11:26:30.844Z,29.72
2019-02-09T11:27:37.002Z,32.67
2019-02-09T11:28:43.427Z,27.52
2019-02-09T11:29:50.169Z,35.90
2019-02-09T11:30:56.638Z,34.05
2019-02-09T11:32:04.563Z,33.25
2019-02-09T11:33:12.743Z,27.95
2019-02-09T11:34:19.934Z,25.65
2019-02-09T11:35:26.102Z,30.15
2019-02-09T11:36:32.233Z,30.82
2019-02-09T11:37:38.924Z,30.37
2019-02-09T11:38:45.663Z,26.77
2019-02-09T11:39:51.442Z,27.90
2019-02-09T11:40:58.622Z,28.52
2019-02-09T11:42:05.284Z,34.60
2019-02-09T11:43:11.943Z,31.30
2019-02-09T11:44:17.815Z,30.32
2019-02-09T11:45:33.024Z,33.63
2019-02-09T11:46:39.943Z,27.93
2019-02-09T11:47:46.043Z,31.52
2019-02-09T11:48:51.783Z,30.20
2019-02-09T11:49:58.520Z,32.10
2019-02-09T11:51:04.505Z,32.08
2019-02-09T11:52:10.816Z,32.25
2019-02-09T11:53:16.695Z,31.93
2019-02-09T11:54:22.904Z,31.00
2019-02-09T11:55:28.810Z,29.65
2019-02-09T11:56:36.315Z,27.42
2019-02-09T11:57:42.624Z,32.08
2019-02-09T11:58:48.882Z,36.15
2019-02-09T11:59:54.823Z,33.20
2019-02-09T12:01:01.698Z,32.15
2019-02-09T12:02:08.456Z,30.50
2019-02-09T12:03:16.336Z,31.20
2019-02-09T12:04:23.863Z,31.07
2019-02-09T12:05:30.555Z,29.70
2019-02-09T12:06:37.815Z,32.73
2019-02-09T12:07:45.242Z,28.75
2019-02-09T12:08:52.019Z,30.88
2019-02-09T12:09:59.815Z,31.20
2019-02-09T12:11:06.939Z,31.77
2019-02-09T12:12:14.009Z,33.25
2019-02-09T12:13:21.122Z,31.62
2019-02-09T12:14:28.016Z,30.10
2019-02-09T12:15:39.616Z,31.15
2019-02-09T12:16:45.824Z,26.93
2019-02-09T12:17:55.362Z,27.58
2019-02-09T12:19:01.313Z,27.82
2019-02-09T12:20:19.263Z,29.15
2019-02-09T12:21:27.263Z,31.27
2019-02-09T12:22:34.075Z,28.40
2019-02-09T12:23:40.368Z,31.42
2019-02-09T12:24:46.480Z,32.13
2019-02-09T12:25:52.629Z,25.77
2019-02-09T12:26:58.783Z,29.27
2019-02-09T12:28:07.675Z,26.73
2019-02-09T12:29:14.083Z,28.90
2019-02-09T12:30:26.483Z,28.52
2019-02-09T12:31:32.523Z,29.23
2019-02-09T12:32:40.022Z,27.17
2019-02-09T12:33:46.157Z,31.40
2019-02-09T12:34:52.862Z,29.65
2019-02-09T12:36:00.062Z,28.40
2019-02-09T12:37:08.467Z,32.80
2019-02-09T12:38:19.404Z,27.52
2019-02-09T12:39:26.395Z,29.45
2019-02-09T12:40:35.318Z,29.45
2019-02-09T12:41:42.043Z,31.07
2019-02-09T12:43:36.022Z,29.18
2019-02-09T12:44:47.196Z,30.10
2019-02-09T12:46:37.344Z,27.10
2019-02-09T12:47:48.284Z,26.90
2019-02-09T12:48:54.057Z,26.60
2019-02-09T12:49:59.736Z,27.80
2019-02-09T12:51:06.942Z,27.30
2019-02-09T12:52:14.783Z,34.27
2019-02-09T12:53:20.875Z,27.20
2019-02-09T12:54:28.556Z,27.05
2019-02-09T12:55:34.664Z,28.30
2019-02-09T12:56:40.823Z,26.25
2019-02-09T12:57:46.410Z,27.52
2019-02-09T12:58:52.842Z,24.63
2019-02-09T13:00:00.264Z,25.70
2019-02-09T13:01:07.803Z,27.07
2019-02-09T13:02:14.803Z,30.23
2019-02-09T13:03:31.265Z,29.47
2019-02-09T13:04:35.668Z,25.92
2019-02-09T13:05:42.143Z,27.07
2019-02-09T13:06:48.282Z,27.87
2019-02-09T13:07:54.937Z,26.70
2019-02-09T13:09:01.137Z,33.80
2019-02-09T13:10:12.773Z,27.13
2019-02-09T13:11:20.782Z,26.27
2019-02-09T13:12:27.063Z,25.12
2019-02-09T13:13:32.983Z,28.07
2019-02-09T13:14:39.942Z,29.40
2019-02-09T13:15:47.062Z,24.77
2019-02-09T13:16:53.823Z,27.63
2019-02-09T13:17:59.715Z,27.48
2019-02-09T13:19:05.785Z,25.50
2019-02-09T13:20:16.422Z,28.40
2019-02-09T13:21:22.543Z,25.53
2019-02-09T13:22:28.997Z,25.97
2019-02-09T13:23:35.424Z,22.37
2019-02-09T13:24:41.643Z,23.83
2019-02-09T13:25:50.455Z,23.33
2019-02-09T13:26:56.815Z,29.17
2019-02-09T13:28:03.782Z,25.30
2019-02-09T13:29:11.202Z,24.18
2019-02-09T13:30:29.803Z,24.72
2019-02-09T13:31:36.306Z,26.70
2019-02-09T13:32:43.519Z,33.88
2019-02-09T13:33:50.159Z,28.95
2019-02-09T13:34:56.160Z,27.20
2019-02-09T13:36:03.554Z,23.73
2019-02-09T13:37:09.527Z,27.35
2019-02-09T13:38:15.989Z,23.97
2019-02-09T13:39:22.494Z,28.20
2019-02-09T13:40:30.770Z,30.23
2019-02-09T13:41:37.180Z,27.23
2019-02-09T13:42:44.840Z,25.10
2019-02-09T13:43:51.001Z,27.52
2019-02-09T13:44:57.671Z,26.55
2019-02-09T13:46:04.876Z,25.15
2019-02-09T13:47:10.581Z,29.32
2019-02-09T13:48:16.151Z,25.32
2019-02-09T13:49:21.696Z,25.30
2019-02-09T13:50:28.281Z,24.77
2019-02-09T13:51:36.846Z,26.68
2019-02-09T13:52:42.509Z,27.10
2019-02-09T13:53:48.066Z,26.00
2019-02-09T13:54:53.774Z,24.97
2019-02-09T13:55:59.323Z,26.67
2019-02-09T13:57:04.941Z,25.30
2019-02-09T13:58:11.038Z,28.13
2019-02-09T13:59:18.598Z,22.57
2019-02-09T14:00:30.637Z,25.90
2019-02-09T14:01:36.925Z,29.27
2019-02-09T14:02:43.682Z,28.23
2019-02-09T14:03:50.167Z,26.77
2019-02-09T14:04:57.080Z,25.03
2019-02-09T14:06:08.194Z,28.33
2019-02-09T14:07:11.519Z,25.73
2019-02-09T14:08:18.079Z,23.37
2019-02-09T14:09:24.599Z,29.20
2019-02-09T14:10:31.717Z,28.63
2019-02-09T14:11:38.729Z,27.77
2019-02-09T14:12:45.431Z,28.77
2019-02-09T14:13:52.629Z,28.00
2019-02-09T14:14:59.972Z,23.37
2019-02-09T14:16:08.266Z,29.87
2019-02-09T14:17:13.870Z,29.13
2019-02-09T14:18:19.841Z,31.63
2019-02-09T14:19:25.472Z,29.13
2019-02-09T14:20:31.123Z,31.23
2019-02-09T14:21:37.785Z,28.50
2019-02-09T14:22:43.590Z,29.13
2019-02-09T14:23:49.301Z,28.50
2019-02-09T14:24:56.340Z,29.97
2019-02-09T14:26:02.578Z,31.93
2019-02-09T14:27:10.285Z,27.13
2019-02-09T14:28:23.033Z,30.63
2019-02-09T14:29:30.239Z,26.40
2019-02-09T14:30:39.970Z,26.73
2019-02-09T14:31:47.251Z,23.00
2019-02-09T14:32:53.790Z,25.47
2019-02-09T14:34:00.615Z,25.47
2019-02-09T14:35:10.879Z,22.17
2019-02-09T14:36:17.513Z,25.97
2019-02-09T14:37:24.470Z,22.97
2019-02-09T14:38:31.092Z,21.17
2019-02-09T14:39:38.217Z,20.50
2019-02-09T14:40:45.400Z,19.20
2019-02-09T14:41:53.072Z,16.97
2019-02-09T14:42:59.990Z,18.77